Amber, Iowa
Current Conditions -  °F | °C
As of 3:15 AM on Friday 19 Dec 2014 (Local Time) from KMXO Reporting Station
Overcast Overcast  
Wind Chill: 16°   Ceiling: 7500
Heat Index: 16°   Visibility: 7mi
Dew Point: 16°   Wind: 0mph
Humidity: 100%   Direction: NA
Pressure: 30.3"   Gusts: NA
Location:  42.1396°N, 91.2844°W
Report Text: KMXO 190915Z AUTO 00000KT 7SM OVC075 M09/M09 A3030 RMK AO2
Loading
Personal Weather Stations






























Interactive Weather Map New forecast layout! Learn more

10-Day Weather Forecast

Advertisements
Track Severe Weather on mobile